Marida Magnolia — V7PL4 — position and weather

sailwx.info

Track history (hours):
 
Tides and Currents Weather Stations Pressure Air Temp Water Temp Dewpoint Dewpoint Depression Visibility Wind Speed Wind Dir Waves Ship Positions

Marida Magnolia

Last reported at 2018-Feb-16 18:19 UTC. Time now 2018-Feb-17 23:20 UTC.
Position N 05°56' E 001°25'.

Length 129 m; draft 6 m.

Type: Tanker. MMSI: 538007089.

Date/timePositionNaut miles runAvg speedWind from/ knotsBaromVisibWave heightAir tempDewpointWater temp
2018-Feb-16 18:19N 05°56' E 001°25'411.1
2018-Feb-16 18:00N 05°59' E 001°22'5 9.5
2018-Feb-16 17:30N 06°02' E 001°18'0 0.5
2018-Feb-16 17:00N 06°02' E 001°18'0 0.0
2018-Feb-16 15:53N 06°02' E 001°18'3 0.2
2018-Feb-16 02:06N 05°59' E 001°18'0 0.0
2018-Feb-15 19:18N 05°59' E 001°18'0 0.2
2018-Feb-15 17:29N 05°59' E 001°18'6 0.3
2018-Feb-14 20:00N 06°02' E 001°13'0 0.0
2018-Feb-14 19:30N 06°02' E 001°13'0 0.0
2018-Feb-14 16:30N 06°02' E 001°13'0 0.0
2018-Feb-14 16:00N 06°02' E 001°13'0 0.0
2018-Feb-14 00:48N 06°02' E 001°13'0 0.0
2018-Feb-14 00:30N 06°02' E 001°13'0 0.3
2018-Feb-14 00:00N 06°02' E 001°13'2 5.0
2018-Feb-13 23:30N 06°00' E 001°12'5310.4
2018-Feb-13 18:24N 05°24' E 000°33'812.9
2018-Feb-13 17:48N 05°21' E 000°26'513.2
2018-Feb-13 17:27N 05°20' E 000°21'613.1
2018-Feb-13 17:00N 05°17' E 000°16'612.9
2018-Feb-13 16:31N 05°15' E 000°10'613.0
2018-Feb-13 16:01N 05°12' E 000°04'612.9
2018-Feb-13 15:31N 05°10' W 000°02'612.8
2018-Feb-13 15:00N 05°08' W 000°08'912.8
2018-Feb-13 14:18N 05°04' W 000°17'1212.7
2018-Feb-13 13:20N 05°01' W 000°29'76 1.7
2018-Feb-11 17:19N 04°53' W 001°44'1 1.6
2018-Feb-11 16:41N 04°54' W 001°44'95 2.3
2018-Feb-09 23:26N 05°07' W 000°09'510.4
2018-Feb-09 23:00N 05°08' W 000°05'310.3
2018-Feb-09 22:40N 05°10' W 000°02'710.2
2018-Feb-09 22:01N 05°13' E 000°04'1510.2
2018-Feb-09 20:31N 05°18' E 000°19'72 1.5
2018-Feb-07 21:12N 06°02' E 001°16'0 0.0
2018-Feb-06 20:00N 06°02' E 001°16'0 0.0
2018-Feb-06 18:36N 06°02' E 001°16'0 0.0
2018-Feb-06 18:24N 06°02' E 001°16'  
Track history (hours):
 
Tides and Currents Weather Stations Pressure Air Temp Water Temp Dewpoint Dewpoint Depression Visibility Wind Speed Wind Dir Waves Ship Positions

Marida Magnolia

Last reported at 2018-Feb-16 18:19 UTC. Time now 2018-Feb-17 23:20 UTC.
Position N 05°56' E 001°25'.

Length 129 m; draft 6 m.

Type: Tanker. MMSI: 538007089.

Date/timePositionNaut miles runAvg speedWind from/ knotsBaromVisibWave heightAir tempDewpointWater temp
2018-Feb-16 18:19N 05°56' E 001°25'411.1
2018-Feb-16 18:00N 05°59' E 001°22'5 9.5
2018-Feb-16 17:30N 06°02' E 001°18'0 0.5
2018-Feb-16 17:00N 06°02' E 001°18'0 0.0
2018-Feb-16 15:53N 06°02' E 001°18'3 0.2
2018-Feb-16 02:06N 05°59' E 001°18'0 0.0
2018-Feb-15 19:18N 05°59' E 001°18'0 0.2
2018-Feb-15 17:29N 05°59' E 001°18'6 0.3
2018-Feb-14 20:00N 06°02' E 001°13'0 0.0
2018-Feb-14 19:30N 06°02' E 001°13'0 0.0
2018-Feb-14 16:30N 06°02' E 001°13'0 0.0
2018-Feb-14 16:00N 06°02' E 001°13'0 0.0
2018-Feb-14 00:48N 06°02' E 001°13'0 0.0
2018-Feb-14 00:30N 06°02' E 001°13'0 0.3
2018-Feb-14 00:00N 06°02' E 001°13'2 5.0
2018-Feb-13 23:30N 06°00' E 001°12'5310.4
2018-Feb-13 18:24N 05°24' E 000°33'812.9
2018-Feb-13 17:48N 05°21' E 000°26'513.2
2018-Feb-13 17:27N 05°20' E 000°21'613.1
2018-Feb-13 17:00N 05°17' E 000°16'612.9
2018-Feb-13 16:31N 05°15' E 000°10'613.0
2018-Feb-13 16:01N 05°12' E 000°04'612.9
2018-Feb-13 15:31N 05°10' W 000°02'612.8
2018-Feb-13 15:00N 05°08' W 000°08'912.8
2018-Feb-13 14:18N 05°04' W 000°17'1212.7
2018-Feb-13 13:20N 05°01' W 000°29'76 1.7
2018-Feb-11 17:19N 04°53' W 001°44'1 1.6
2018-Feb-11 16:41N 04°54' W 001°44'95 2.3
2018-Feb-09 23:26N 05°07' W 000°09'510.4
2018-Feb-09 23:00N 05°08' W 000°05'310.3
2018-Feb-09 22:40N 05°10' W 000°02'710.2
2018-Feb-09 22:01N 05°13' E 000°04'1510.2
2018-Feb-09 20:31N 05°18' E 000°19'72 1.5
2018-Feb-07 21:12N 06°02' E 001°16'0 0.0
2018-Feb-06 20:00N 06°02' E 001°16'0 0.0
2018-Feb-06 18:36N 06°02' E 001°16'0 0.0
2018-Feb-06 18:24N 06°02' E 001°16'  

Dump ship's entire track history